Main page
METAR-TAF:

METAR-TAF

Airports :

Holloman Air Force Base

Alamogordo / Holloman, New Mexico, United States

latitude: 32-51N, longitude: 106-06W, elevation: 4093 ft

Current weather observation

The report was made 59 minutes ago, at 01:58 UTC
Wind 3 mph from the North
Temperature 39°F
Humidity 44%
Pressure 30.36 in. Hg
Visibility: 10 miles
Clear sky

METAR: KHMN 150158Z AUTO 36003KT 10SM CLR 04/M07 A3036 RMK AO2 SLP289 T00401072 $

Time: 19:57 (02:57 UTC)

Forecast

The report was made 1 hour and 57 minutes ago, at 01:00 UTC
Forecast valid from 15 at 01 UTC to 16 at 07 UTC
Wind 7 mph from variable directions
Visibility 6.2 miles or more
Broken clouds at a height of 20000 ft
Becoming
from 16 at 02 UTC to 16 at 03 UTC
Wind 5 mph from variable directions
Visibility 6.2 miles or more
Few clouds at a height of 20000 ft

TAF: KHMN 150100Z 1501/1607 VRB06KT 9999 BKN200 QNH3022INS BECMG 1602/1603 VRB04KT 9999 FEW200 QNH3020INS TX14/1521Z TN02/1512Z

Weather observations and forecasts of more than 4000 airports (METAR and TAF reports).

The available stations are represented by yellow and red dots on the map.

Hover mouse over dot to see the name of the station.

Then click to see weather observations and forecasts.

To change the map : click on the green buttons with a black cross to zoom in, on the green button with a dash to zoom out, or on the green arrows for adjacent maps.


METAR-TAF: